createdAt,value
2022-09-11T00:02:05.029Z,1011.05
2022-09-11T00:08:24.997Z,1011.05
2022-09-11T00:14:48.044Z,1011.07
2022-09-11T00:21:07.974Z,1011.09
2022-09-11T00:27:31.027Z,1011.07
2022-09-11T00:33:51.015Z,1011.03
2022-09-11T00:40:13.997Z,1011.03
2022-09-11T00:46:34.026Z,1011.05
2022-09-11T00:52:56.999Z,1011.1
2022-09-11T00:59:16.990Z,1011.14
2022-09-11T01:05:40.010Z,1011.16
2022-09-11T01:12:00.086Z,1011.22
2022-09-11T01:18:23.004Z,1011.24
2022-09-11T01:24:42.964Z,1011.24
2022-09-11T01:31:06.118Z,1011.24
2022-09-11T01:37:26.054Z,1011.28
2022-09-11T01:43:49.040Z,1011.32
2022-09-11T01:50:09.028Z,1011.4
2022-09-11T01:56:31.981Z,1011.48
2022-09-11T02:02:51.970Z,1011.51
2022-09-11T02:09:15.094Z,1011.55
2022-09-11T02:15:34.967Z,1011.57
2022-09-11T02:21:57.984Z,1011.61
2022-09-11T02:28:18.039Z,1011.65
2022-09-11T02:34:41.065Z,1011.65
2022-09-11T02:41:01.048Z,1011.69
2022-09-11T02:47:24.034Z,1011.71
2022-09-11T02:53:44.025Z,1011.75
2022-09-11T03:00:07.081Z,1011.77
2022-09-11T03:06:27.002Z,1011.77
2022-09-11T03:12:49.970Z,1011.81
2022-09-11T03:35:38.508Z,1011.93
2022-09-11T03:41:58.042Z,1011.91
2022-09-11T03:48:21.184Z,1011.93
2022-09-11T03:54:40.991Z,1011.96
2022-09-11T04:01:04.042Z,1011.98
2022-09-11T04:07:23.998Z,1012.02
2022-09-11T04:13:47.005Z,1012.08
2022-09-11T04:20:07.007Z,1012.08
2022-09-11T04:26:30.051Z,1012.06
2022-09-11T04:32:50.010Z,1012.1
2022-09-11T04:39:12.980Z,1012.12
2022-09-11T04:45:33.081Z,1012.2
2022-09-11T04:51:56.010Z,1012.22
2022-09-11T04:58:16.027Z,1012.26
2022-09-11T05:04:39.020Z,1012.3
2022-09-11T05:10:59.002Z,1012.36
2022-09-11T05:17:21.979Z,1012.42
2022-09-11T05:23:42.222Z,1012.4
2022-09-11T05:30:05.034Z,1012.45
2022-09-11T05:36:25.137Z,1012.53
2022-09-11T05:42:48.023Z,1012.61
2022-09-11T05:49:08.176Z,1012.69
2022-09-11T05:55:31.047Z,1012.77
2022-09-11T06:01:51.018Z,1012.89
2022-09-11T06:08:14.144Z,1012.9
2022-09-11T06:14:34.045Z,1013.02
2022-09-11T06:20:57.133Z,1013.21
2022-09-11T06:27:17.013Z,1013.28
2022-09-11T06:33:40.037Z,1013.36
2022-09-11T06:40:00.027Z,1013.38
2022-09-11T06:46:23.021Z,1013.42
2022-09-11T06:52:43.003Z,1013.44
2022-09-11T06:59:05.983Z,1013.46
2022-09-11T07:05:26.035Z,1013.5
2022-09-11T07:11:49.040Z,1013.5
2022-09-11T07:18:08.997Z,1013.56
2022-09-11T07:24:32.062Z,1013.58
2022-09-11T07:30:52.024Z,1013.6
2022-09-11T07:37:15.033Z,1013.66
2022-09-11T07:43:36.306Z,1013.68
2022-09-11T07:49:59.006Z,1013.72
2022-09-11T07:56:19.029Z,1013.74
2022-09-11T08:02:42.033Z,1013.79
2022-09-11T08:09:01.997Z,1013.81
2022-09-11T08:15:24.981Z,1013.87
2022-09-11T08:21:45.030Z,1013.91
2022-09-11T08:28:07.984Z,1013.91
2022-09-11T08:45:39.036Z,1014.15
2022-09-11T08:52:01.978Z,1014.21
2022-09-11T08:58:22.000Z,1014.26
2022-09-11T09:04:45.002Z,1014.3
2022-09-11T09:11:04.965Z,1014.36
2022-09-11T09:17:27.994Z,1014.38
2022-09-11T09:23:48.001Z,1014.42
2022-09-11T09:30:10.983Z,1014.44
2022-09-11T09:36:30.975Z,1014.5
2022-09-11T09:42:54.005Z,1014.54
2022-09-11T09:49:13.993Z,1014.52
2022-09-11T09:55:36.977Z,1014.6
2022-09-11T10:01:57.098Z,1014.56
2022-09-11T10:08:19.995Z,1014.54
2022-09-11T10:14:51.378Z,1014.5
2022-09-11T10:21:05.868Z,1014.5
2022-09-11T10:27:25.230Z,1014.5
2022-09-11T10:33:46.063Z,1014.5
2022-09-11T10:40:06.032Z,1014.48
2022-09-11T10:46:28.999Z,1014.42
2022-09-11T10:52:50.027Z,1014.38
2022-09-11T10:59:13.013Z,1014.36
2022-09-11T11:05:32.996Z,1014.34
2022-09-11T11:11:55.983Z,1014.3
2022-09-11T11:18:16.026Z,1014.21
2022-09-11T11:24:38.993Z,1014.15
2022-09-11T11:30:59.014Z,1014.13
2022-09-11T11:37:22.015Z,1014.07
2022-09-11T11:43:41.995Z,1014.09
2022-09-11T11:50:05.017Z,1014.07
2022-09-11T11:56:25.021Z,1014.11
2022-09-11T12:02:51.976Z,1014.11
2022-09-11T12:09:11.989Z,1014.13
2022-09-11T12:15:35.144Z,1014.13
2022-09-11T12:21:55.012Z,1014.09
2022-09-11T12:28:17.998Z,1014.09
2022-09-11T12:34:38.218Z,1014.01
2022-09-11T12:41:01.012Z,1013.99
2022-09-11T12:47:20.981Z,1013.95
2022-09-11T12:53:46.901Z,1013.93
2022-09-11T13:00:04.035Z,1013.89
2022-09-11T13:06:26.980Z,1013.85
2022-09-11T13:12:47.018Z,1013.74
2022-09-11T13:19:09.982Z,1013.64
2022-09-11T13:25:29.992Z,1013.56
2022-09-11T13:31:53.020Z,1013.46
2022-09-11T13:38:12.981Z,1013.48
2022-09-11T13:44:35.994Z,1013.44
2022-09-11T13:50:56.006Z,1013.34
2022-09-11T14:14:20.008Z,1013.1
2022-09-11T14:20:42.983Z,1013.04
2022-09-11T14:27:02.988Z,1013
2022-09-11T14:33:26.003Z,1012.96
2022-09-11T14:39:46.056Z,1012.92
2022-09-11T14:46:09.019Z,1012.87
2022-09-11T14:52:29.030Z,1012.85
2022-09-11T14:58:51.990Z,1012.85
2022-09-11T15:05:11.987Z,1012.81
2022-09-11T15:11:38.827Z,1012.75
2022-09-11T15:17:54.980Z,1012.67
2022-09-11T15:24:17.990Z,1012.61
2022-09-11T15:30:38.018Z,1012.53
2022-09-11T15:37:00.981Z,1012.47
2022-09-11T15:43:21.005Z,1012.42
2022-09-11T15:49:43.998Z,1012.45
2022-09-11T15:56:03.977Z,1012.43
2022-09-11T16:02:27.050Z,1012.42
2022-09-11T16:08:47.006Z,1012.42
2022-09-11T16:15:10.014Z,1012.43
2022-09-11T16:21:29.982Z,1012.38
2022-09-11T16:27:52.995Z,1012.36
2022-09-11T16:34:13.043Z,1012.32
2022-09-11T16:40:35.982Z,1012.38
2022-09-11T16:46:56.011Z,1012.34
2022-09-11T16:53:18.996Z,1012.32
2022-09-11T16:59:38.994Z,1012.34
2022-09-11T17:06:02.023Z,1012.28
2022-09-11T17:12:21.987Z,1012.28
2022-09-11T17:18:45.073Z,1012.32
2022-09-11T17:25:04.997Z,1012.32
2022-09-11T17:31:28.011Z,1012.3
2022-09-11T17:37:47.976Z,1012.3
2022-09-11T17:44:11.014Z,1012.28
2022-09-11T17:50:30.978Z,1012.28
2022-09-11T17:56:54.001Z,1012.26
2022-09-11T18:03:14.005Z,1012.24
2022-09-11T18:09:36.999Z,1012.24
2022-09-11T18:15:57.004Z,1012.26
2022-09-11T18:22:20.041Z,1012.32
2022-09-11T18:28:39.986Z,1012.42
2022-09-11T18:35:02.974Z,1012.47
2022-09-11T18:41:23.010Z,1012.53
2022-09-11T18:47:45.965Z,1012.55
2022-09-11T18:54:06.012Z,1012.61
2022-09-11T19:00:29.003Z,1012.57
2022-09-11T19:06:48.964Z,1012.55
2022-09-11T19:13:12.001Z,1012.53
2022-09-11T19:19:32.001Z,1012.55
2022-09-11T19:42:01.998Z,1012.63
2022-09-11T19:48:24.968Z,1012.67
2022-09-11T19:54:44.998Z,1012.75
2022-09-11T20:01:08.055Z,1012.79
2022-09-11T20:07:27.974Z,1012.81
2022-09-11T20:13:50.986Z,1012.83
2022-09-11T20:20:11.021Z,1012.87
2022-09-11T20:26:33.979Z,1012.81
2022-09-11T20:32:53.963Z,1012.83
2022-09-11T20:39:17.010Z,1012.75
2022-09-11T20:45:36.974Z,1012.71
2022-09-11T20:52:00.608Z,1012.71
2022-09-11T20:58:20.015Z,1012.71
2022-09-11T21:04:42.970Z,1012.69
2022-09-11T21:11:02.997Z,1012.63
2022-09-11T21:17:25.995Z,1012.61
2022-09-11T21:23:46.158Z,1012.51
2022-09-11T21:30:08.994Z,1012.49
2022-09-11T21:36:29.030Z,1012.49
2022-09-11T21:42:51.980Z,1012.45
2022-09-11T21:49:11.971Z,1012.45
2022-09-11T21:55:35.001Z,1012.45
2022-09-11T22:19:48.994Z,1012.47
2022-09-11T22:26:08.977Z,1012.47
2022-09-11T22:32:32.066Z,1012.45
2022-09-11T22:38:52.008Z,1012.42
2022-09-11T22:45:15.023Z,1012.38
2022-09-11T22:51:35.006Z,1012.34
2022-09-11T22:57:58.027Z,1012.36
2022-09-11T23:04:18.005Z,1012.32
2022-09-11T23:10:41.014Z,1012.32
2022-09-11T23:17:01.034Z,1012.32
2022-09-11T23:23:24.004Z,1012.32
2022-09-11T23:29:44.010Z,1012.34
2022-09-11T23:36:07.038Z,1012.32
2022-09-11T23:42:27.009Z,1012.26
2022-09-11T23:48:50.047Z,1012.28
2022-09-11T23:55:10.028Z,1012.26
